Terminal Aerodrome Forecast
Issued by NWS

Home | Current Version | Previous Version | Text Only | Print | Product List | Glossary On
Versions: 1 2 3 4 5 6 7 8 9 10 11 12 13 14
000
FTUS46 KMFR 041742
TAFRBG
TAF
KRBG 041742Z 0418/0518 36005KT P6SM OVC025
     FM042100 35007KT P6SM FEW035
     FM050300 35004KT P6SM SCT015 BKN035
     FM050900 VRB03KT P6SM OVC020
     FM051700 VRB03KT P6SM SCT025 BKN035=

USA.gov is the U.S. government's official web portal to all federal, state and local government web resources and services.